Time;durP1;ratioP1;P1;durP2;ratioP2;P2;SDS_P1;SDS_P2;PMS_P1;PMS_P2;Temp;Humidity;BMP_temperature;BMP_pressure;BME280_temperature;BME280_humidity;BME280_pressure;Samples;Min_cycle;Max_cycle;Signal;HPM_P1;HPM_P2
2022/01/11 00:00:10;;;;;;;0.20;0.10;;;;;;;0.03;100.00;101670.56;5054552;28;20508;-52
2022/01/11 00:02:41;;;;;;;0.20;0.10;;;;;;;0.00;100.00;101679.19;5054227;28;20451;-51
2022/01/11 00:05:16;;;;;;;0.93;0.93;;;;;;;0.12;100.00;101668.25;5054664;28;20457;-51
2022/01/11 00:07:44;;;;;;;0.20;0.10;;;;;;;0.04;100.00;101685.41;5054254;28;20516;-53
2022/01/11 00:10:14;;;;;;;0.20;0.10;;;;;;;0.03;100.00;101670.56;5051385;28;20526;-51
2022/01/11 00:12:40;;;;;;;0.40;0.40;;;;;;;-0.01;100.00;101682.59;5049339;28;20461;-51
2022/01/11 00:15:08;;;;;;;0.20;0.10;;;;;;;-0.06;100.00;101679.84;5054114;28;20939;-51
2022/01/11 00:17:34;;;;;;;0.20;0.10;;;;;;;0.14;100.00;101677.97;5053919;28;20545;-51
2022/01/11 00:20:01;;;;;;;0.20;0.10;;;;;;;0.45;100.00;101676.44;5054261;28;20443;-51
2022/01/11 00:22:32;;;;;;;0.20;0.10;;;;;;;-0.02;100.00;101680.84;5054031;28;20496;-52
2022/01/11 00:24:58;;;;;;;0.20;0.10;;;;;;;-0.05;100.00;101675.50;5054161;28;20446;-51
2022/01/11 00:27:25;;;;;;;0.20;0.10;;;;;;;-0.14;100.00;101677.75;5053739;28;20479;-52
2022/01/11 00:29:54;;;;;;;0.20;0.10;;;;;;;-0.16;100.00;101675.09;5053859;28;20552;-51
2022/01/11 00:32:36;;;;;;;0.20;0.10;;;;;;;0.16;100.00;101673.69;5054058;28;20450;-51
2022/01/11 00:35:04;;;;;;;0.20;0.10;;;;;;;0.14;100.00;101682.31;5054151;28;20450;-51
2022/01/11 00:37:30;;;;;;;0.20;0.10;;;;;;;0.27;100.00;101682.81;5053868;28;20474;-51
2022/01/11 00:39:59;;;;;;;0.20;0.10;;;;;;;0.27;100.00;101690.66;5053739;28;20493;-52
2022/01/11 00:42:25;;;;;;;0.20;0.10;;;;;;;0.31;100.00;101683.78;5053634;28;20454;-51
2022/01/11 00:44:52;;;;;;;0.20;0.10;;;;;;;0.10;100.00;101690.84;5054546;28;20459;-52
2022/01/11 00:47:19;;;;;;;1.13;1.13;;;;;;;0.38;100.00;101690.09;5054307;28;20477;-52
2022/01/11 00:49:46;;;;;;;0.20;0.10;;;;;;;0.14;100.00;101685.81;5053734;28;20487;-52
2022/01/11 00:52:14;;;;;;;0.20;0.10;;;;;;;-0.08;100.00;101694.56;5053772;28;20497;-52
2022/01/11 00:54:41;;;;;;;0.20;0.10;;;;;;;0.11;100.00;101692.63;5053522;28;20473;-52
2022/01/11 00:57:08;;;;;;;3.87;1.23;;;;;;;0.22;100.00;101693.91;5053440;28;20540;-51
2022/01/11 00:59:34;;;;;;;0.20;0.10;;;;;;;0.20;100.00;101700.81;5053428;28;20485;-52
2022/01/11 01:02:01;;;;;;;0.20;0.10;;;;;;;0.07;100.00;101695.97;5053416;28;20504;-52
2022/01/11 01:04:28;;;;;;;0.20;0.10;;;;;;;0.04;100.00;101698.47;5053406;28;20451;-51
2022/01/11 01:06:54;;;;;;;0.20;0.10;;;;;;;-0.02;100.00;101701.75;5052553;28;20466;-51
2022/01/11 01:09:23;;;;;;;0.30;0.10;;;;;;;0.03;100.00;101700.19;5052966;28;20548;-51
2022/01/11 01:11:50;;;;;;;0.20;0.10;;;;;;;0.04;100.00;101707.22;5053103;28;20493;-51
2022/01/11 01:14:18;;;;;;;0.20;0.10;;;;;;;0.24;100.00;101710.53;5053393;28;20451;-51
2022/01/11 01:16:44;;;;;;;0.20;0.10;;;;;;;0.35;100.00;101717.03;5052933;28;20528;-51
2022/01/11 01:19:11;;;;;;;0.20;0.10;;;;;;;0.08;100.00;101716.94;5052996;28;20447;-52
2022/01/11 01:21:38;;;;;;;0.40;0.40;;;;;;;0.03;100.00;101715.00;5053057;28;20870;-51
2022/01/11 01:24:11;;;;;;;0.20;0.10;;;;;;;-0.12;100.00;101720.53;5052818;28;20516;-51
2022/01/11 01:26:38;;;;;;;0.20;0.10;;;;;;;-0.04;100.00;101713.88;5053227;28;20989;-51
2022/01/11 01:29:05;;;;;;;0.20;0.10;;;;;;;0.14;100.00;101717.19;5039512;28;20508;-51
2022/01/11 01:31:32;;;;;;;0.20;0.10;;;;;;;-0.02;100.00;101718.31;5052676;28;20459;-51
2022/01/11 01:33:58;;;;;;;0.20;0.10;;;;;;;0.01;100.00;101722.78;5052870;28;20973;-51
2022/01/11 01:36:26;;;;;;;0.20;0.10;;;;;;;0.06;100.00;101723.84;5052407;28;20497;-52
2022/01/11 01:38:52;;;;;;;0.20;0.10;;;;;;;0.06;100.00;101730.78;5052929;28;20450;-51
2022/01/11 01:41:21;;;;;;;0.20;0.10;;;;;;;0.49;100.00;101723.66;5051499;28;20497;-51
2022/01/11 01:43:51;;;;;;;0.20;0.10;;;;;;;0.20;100.00;101727.84;5052676;28;20443;-52
2022/01/11 01:46:18;;;;;;;0.20;0.10;;;;;;;-0.17;100.00;101729.91;5052513;28;20470;-51
2022/01/11 01:48:46;;;;;;;0.20;0.10;;;;;;;-0.16;100.00;101721.25;5052583;28;20450;-51
2022/01/11 01:51:13;;;;;;;0.20;0.10;;;;;;;-0.19;100.00;101724.63;5052195;28;20924;-51
2022/01/11 01:53:46;;;;;;;0.20;0.10;;;;;;;0.02;100.00;101721.06;5052664;28;20496;-53
2022/01/11 01:56:16;;;;;;;0.20;0.20;;;;;;;0.00;100.00;101728.84;5052514;28;20447;-51
2022/01/11 01:58:43;;;;;;;0.20;0.10;;;;;;;-0.19;100.00;101731.56;5052603;28;20463;-51
2022/01/11 02:01:13;;;;;;;0.20;0.10;;;;;;;0.14;100.00;101729.34;5052219;28;20443;-52
2022/01/11 02:03:41;;;;;;;0.20;0.10;;;;;;;0.10;100.00;101732.66;5052236;28;20530;-52
2022/01/11 02:06:11;;;;;;;0.20;0.10;;;;;;;0.26;100.00;101735.00;5052360;28;20450;-51
2022/01/11 02:08:38;;;;;;;0.20;0.10;;;;;;;0.39;100.00;101738.97;5052112;28;21038;-51
2022/01/11 02:11:06;;;;;;;0.20;0.10;;;;;;;0.07;100.00;101740.41;5052065;28;20620;-51
2022/01/11 02:13:33;;;;;;;0.20;0.10;;;;;;;0.11;100.00;101750.13;5053222;28;20933;-51
2022/01/11 02:16:01;;;;;;;0.20;0.10;;;;;;;-0.01;100.00;101742.72;5053500;28;20451;-51
2022/01/11 02:18:28;;;;;;;0.20;0.10;;;;;;;0.17;100.00;101747.75;5052608;28;20524;-52
2022/01/11 02:20:58;;;;;;;0.20;0.10;;;;;;;0.02;100.00;101747.19;5053151;28;20963;-52
2022/01/11 02:23:27;;;;;;;0.20;0.10;;;;;;;0.25;100.00;101747.19;5053668;28;20539;-52
2022/01/11 02:25:55;;;;;;;0.20;0.10;;;;;;;0.03;100.00;101752.47;5052970;28;20447;-51
2022/01/11 02:28:24;;;;;;;0.20;0.10;;;;;;;0.15;100.00;101749.44;5052105;28;20474;-52
2022/01/11 02:30:53;;;;;;;0.20;0.10;;;;;;;-0.02;100.00;101751.38;5052013;28;20491;-51
2022/01/11 02:33:43;;;;;;;0.20;0.10;;;;;;;-0.04;100.00;101750.44;5039477;28;20881;-51
2022/01/11 02:36:25;;;;;;;0.20;0.10;;;;;;;0.27;100.00;101761.25;5051936;28;20975;-52
2022/01/11 02:38:54;;;;;;;0.20;0.10;;;;;;;0.27;100.00;101758.63;5052354;28;20868;-52
2022/01/11 02:41:24;;;;;;;0.20;0.10;;;;;;;0.22;100.00;101746.19;5051751;28;20447;-51
2022/01/11 02:43:51;;;;;;;0.20;0.10;;;;;;;0.12;100.00;101742.34;5051828;28;20454;-51
2022/01/11 02:46:20;;;;;;;0.20;0.10;;;;;;;0.09;100.00;101747.47;5051878;28;20450;-52
2022/01/11 02:48:48;;;;;;;0.20;0.10;;;;;;;0.05;100.00;101753.41;5052059;28;20450;-52
2022/01/11 02:51:16;;;;;;;0.20;0.10;;;;;;;0.05;100.00;101757.75;5038703;28;21129;-52
2022/01/11 02:53:51;;;;;;;0.20;0.10;;;;;;;0.62;100.00;101753.75;5051612;28;20451;-52
2022/01/11 02:56:19;;;;;;;0.20;0.20;;;;;;;0.54;100.00;101756.09;5051815;28;20447;-52
2022/01/11 02:58:46;;;;;;;0.20;0.10;;;;;;;0.58;100.00;101754.50;5051621;28;20546;-52
2022/01/11 03:01:13;;;;;;;0.20;0.10;;;;;;;0.53;100.00;101753.41;5051779;28;20875;-51
2022/01/11 03:03:40;;;;;;;0.20;0.10;;;;;;;0.23;100.00;101756.72;5050549;28;20454;-51
2022/01/11 03:06:07;;;;;;;0.20;0.10;;;;;;;0.26;100.00;101748.06;5051637;28;20504;-51
2022/01/11 03:08:42;;;;;;;0.20;0.10;;;;;;;0.16;100.00;101753.81;5051747;28;20480;-51
2022/01/11 03:11:10;;;;;;;0.20;0.10;;;;;;;0.09;100.00;101752.69;5051554;28;21091;-52
2022/01/11 03:13:39;;;;;;;0.20;0.10;;;;;;;0.15;100.00;101758.16;5051967;28;20455;-52
2022/01/11 03:16:06;;;;;;;0.20;0.10;;;;;;;0.35;100.00;101750.16;5050499;28;20512;-52
2022/01/11 03:18:33;;;;;;;0.20;0.10;;;;;;;0.52;100.00;101760.38;5051203;28;20975;-51
2022/01/11 03:21:00;;;;;;;0.20;0.10;;;;;;;0.45;100.00;101757.50;5050268;28;20936;-52
2022/01/11 03:23:27;;;;;;;0.20;0.10;;;;;;;0.21;100.00;101760.09;5051460;28;20454;-52
2022/01/11 03:25:54;;;;;;;0.20;0.10;;;;;;;-0.02;100.00;101769.69;5051618;28;20508;-52
2022/01/11 03:28:23;;;;;;;0.20;0.10;;;;;;;0.03;100.00;101777.72;5051466;28;20863;-51
2022/01/11 03:30:51;;;;;;;0.20;0.10;;;;;;;0.13;100.00;101780.72;5054974;28;20490;-51
2022/01/11 03:33:18;;;;;;;0.20;0.10;;;;;;;-0.18;100.00;101778.66;5054935;28;20454;-51
2022/01/11 03:35:46;;;;;;;0.20;0.10;;;;;;;-0.03;100.00;101789.69;5055185;28;20474;-52
2022/01/11 03:38:13;;;;;;;0.20;0.10;;;;;;;-0.13;100.00;101786.69;5054898;28;20564;-52
2022/01/11 03:40:41;;;;;;;0.20;0.10;;;;;;;-0.19;100.00;101795.16;5055045;28;20443;-53
2022/01/11 03:43:08;;;;;;;0.20;0.10;;;;;;;0.06;100.00;101793.50;5054664;28;20447;-52
2022/01/11 03:45:36;;;;;;;0.20;0.10;;;;;;;-0.12;100.00;101798.94;5054713;28;20455;-53
2022/01/11 03:48:05;;;;;;;0.20;0.10;;;;;;;-0.06;100.00;101801.78;5054863;28;20528;-52
2022/01/11 03:50:32;;;;;;;0.20;0.10;;;;;;;0.02;100.00;101802.97;5054839;28;20486;-51
2022/01/11 03:53:06;;;;;;;0.53;0.53;;;;;;;0.15;100.00;101807.84;5054652;28;20997;-52
2022/01/11 03:55:58;;;;;;;0.20;0.10;;;;;;;-0.10;100.00;101807.72;5049444;28;20803;-51
2022/01/11 03:58:26;;;;;;;0.20;0.10;;;;;;;0.06;100.00;101798.75;5053251;28;20548;-51
2022/01/11 04:00:54;;;;;;;0.20;0.10;;;;;;;0.57;100.00;101810.25;5054603;28;20447;-51
2022/01/11 04:03:22;;;;;;;0.20;0.10;;;;;;;0.68;100.00;101816.75;5054644;28;20457;-51
2022/01/11 04:05:49;;;;;;;0.20;0.10;;;;;;;0.21;100.00;101815.00;5054531;28;20524;-51
2022/01/11 04:08:19;;;;;;;0.20;0.10;;;;;;;0.23;100.00;101818.56;5054355;28;20895;-52
2022/01/11 04:10:46;;;;;;;0.20;0.10;;;;;;;-0.05;100.00;101814.91;5054144;28;20498;-51
2022/01/11 04:13:13;;;;;;;0.20;0.10;;;;;;;-0.17;100.00;101811.78;5054440;28;20509;-51
2022/01/11 04:15:40;;;;;;;0.20;0.10;;;;;;;0.04;100.00;101811.75;5054537;28;20446;-52
2022/01/11 04:18:06;;;;;;;0.20;0.10;;;;;;;-0.17;100.00;101813.53;5054222;28;20984;-51
2022/01/11 04:20:33;;;;;;;0.20;0.10;;;;;;;-0.04;100.00;101816.66;5053064;28;20449;-51
2022/01/11 04:23:00;;;;;;;0.20;0.10;;;;;;;0.03;100.00;101814.31;5054142;28;20447;-51
2022/01/11 04:25:26;;;;;;;0.20;0.10;;;;;;;0.08;100.00;101815.38;5054032;28;20534;-52
2022/01/11 04:27:53;;;;;;;0.20;0.10;;;;;;;-0.11;100.00;101812.06;5054177;28;20467;-51
2022/01/11 04:30:20;;;;;;;0.20;0.10;;;;;;;-0.12;100.00;101812.00;5054085;28;20524;-51
2022/01/11 04:32:48;;;;;;;0.20;0.10;;;;;;;-0.32;100.00;101816.41;5054095;28;20496;-51
2022/01/11 04:35:16;;;;;;;0.20;0.10;;;;;;;-0.46;100.00;101821.09;5053996;28;20450;-51
2022/01/11 04:37:46;;;;;;;0.20;0.10;;;;;;;-0.41;100.00;101821.25;5053771;28;20916;-51
2022/01/11 04:40:14;;;;;;;0.20;0.10;;;;;;;-0.47;100.00;101823.63;5054176;28;20466;-51
2022/01/11 04:42:41;;;;;;;0.20;0.10;;;;;;;-0.41;100.00;101814.34;5053791;28;20451;-54
2022/01/11 04:45:10;;;;;;;0.20;0.10;;;;;;;-0.20;100.00;101821.25;5053858;28;20481;-54
2022/01/11 04:47:37;;;;;;;0.20;0.10;;;;;;;-0.01;100.00;101823.72;5053473;28;20467;-55
2022/01/11 04:50:05;;;;;;;0.20;0.10;;;;;;;-0.08;100.00;101821.72;5053435;28;20508;-55
2022/01/11 04:52:32;;;;;;;0.20;0.10;;;;;;;-0.16;100.00;101825.75;5053339;28;20951;-55
2022/01/11 04:54:59;;;;;;;0.20;0.10;;;;;;;-0.11;100.00;101824.22;5053606;28;20458;-54
2022/01/11 04:57:42;;;;;;;0.20;0.10;;;;;;;-0.21;100.00;101833.41;5053891;28;20494;-51
2022/01/11 05:00:10;;;;;;;0.20;0.10;;;;;;;0.04;100.00;101831.78;5053329;28;20496;-52
2022/01/11 05:02:37;;;;;;;0.20;0.10;;;;;;;0.06;100.00;101828.38;5053393;28;20513;-51
2022/01/11 05:05:04;;;;;;;0.30;0.10;;;;;;;-0.15;100.00;101832.75;5052977;28;20811;-51
2022/01/11 05:07:31;;;;;;;0.20;0.10;;;;;;;-0.25;100.00;101841.97;5053487;28;20466;-52
2022/01/11 05:09:57;;;;;;;0.20;0.10;;;;;;;-0.29;100.00;101842.66;5053197;28;20457;-51
2022/01/11 05:12:24;;;;;;;0.20;0.10;;;;;;;-0.08;100.00;101843.53;5053448;28;20848;-51
2022/01/11 05:14:51;;;;;;;0.20;0.10;;;;;;;-0.04;100.00;101850.66;5053142;28;20450;-51
2022/01/11 05:17:17;;;;;;;0.20;0.10;;;;;;;-0.32;100.00;101850.38;5052933;28;21041;-52
2022/01/11 05:19:44;;;;;;;0.20;0.10;;;;;;;-0.16;100.00;101844.94;5053224;28;20843;-52
2022/01/11 05:22:11;;;;;;;0.20;0.10;;;;;;;-0.28;100.00;101849.66;5053345;28;20508;-52
2022/01/11 05:24:37;;;;;;;0.20;0.10;;;;;;;-0.31;100.00;101846.94;5052894;28;20447;-51
2022/01/11 05:27:04;;;;;;;0.20;0.10;;;;;;;-0.41;100.00;101852.59;5053035;28;20532;-51
2022/01/11 05:29:31;;;;;;;0.20;0.10;;;;;;;-0.28;100.00;101854.88;5052891;28;20451;-52
2022/01/11 05:31:59;;;;;;;0.20;0.10;;;;;;;-0.21;100.00;101854.31;5053248;28;20494;-52
2022/01/11 05:34:26;;;;;;;0.20;0.10;;;;;;;-0.32;100.00;101851.25;5052615;28;20451;-52
2022/01/11 05:36:53;;;;;;;0.20;0.10;;;;;;;-0.21;100.00;101856.03;5052627;28;20516;-51
2022/01/11 05:39:20;;;;;;;0.20;0.10;;;;;;;-0.21;100.00;101858.66;5052605;28;20451;-51
2022/01/11 05:41:47;;;;;;;0.20;0.10;;;;;;;-0.21;100.00;101851.72;5052554;28;20998;-52
2022/01/11 05:44:18;;;;;;;0.20;0.10;;;;;;;-0.34;100.00;101865.09;5052320;28;20534;-51
2022/01/11 05:46:44;;;;;;;0.20;0.10;;;;;;;-0.29;100.00;101858.34;5052682;28;20881;-51
2022/01/11 05:49:11;;;;;;;0.50;0.50;;;;;;;-0.34;100.00;101858.16;5052540;28;20829;-51
2022/01/11 05:51:37;;;;;;;0.20;0.10;;;;;;;-0.15;100.00;101851.94;5052008;28;20490;-51
2022/01/11 05:54:04;;;;;;;0.20;0.10;;;;;;;-0.18;100.00;101867.50;5052342;28;20819;-51
2022/01/11 05:56:31;;;;;;;0.20;0.10;;;;;;;-0.14;100.00;101873.72;5052191;28;20455;-51
2022/01/11 05:58:58;;;;;;;0.20;0.10;;;;;;;-0.04;100.00;101868.94;5052079;28;20508;-51
2022/01/11 06:01:24;;;;;;;0.20;0.10;;;;;;;0.11;100.00;101865.16;5052488;28;20446;-51
2022/01/11 06:03:51;;;;;;;0.20;0.10;;;;;;;-0.07;100.00;101866.22;5052158;28;20572;-53
2022/01/11 06:06:18;;;;;;;0.20;0.10;;;;;;;0.11;100.00;101866.03;5052248;28;20458;-51
2022/01/11 06:08:45;;;;;;;7.13;6.53;;;;;;;0.01;100.00;101869.16;5052023;28;20458;-52
2022/01/11 06:11:12;;;;;;;0.20;0.10;;;;;;;0.09;100.00;101866.81;5050909;28;20512;-51
2022/01/11 06:13:38;;;;;;;0.20;0.10;;;;;;;0.07;100.00;101864.16;5051721;28;20451;-52
2022/01/11 06:16:05;;;;;;;0.20;0.10;;;;;;;0.17;100.00;101875.88;5052489;28;20446;-51
2022/01/11 06:18:32;;;;;;;0.20;0.10;;;;;;;-0.28;100.00;101867.06;5052158;28;20480;-51
2022/01/11 06:20:58;;;;;;;0.20;0.10;;;;;;;0.13;100.00;101874.81;5052159;28;20933;-51
2022/01/11 06:23:25;;;;;;;0.20;0.10;;;;;;;-0.02;100.00;101879.44;5052037;28;20450;-51
2022/01/11 06:25:51;;;;;;;0.20;0.10;;;;;;;0.08;100.00;101881.59;5052065;28;20473;-51
2022/01/11 06:28:18;;;;;;;0.20;0.10;;;;;;;0.35;100.00;101875.66;5051854;28;20548;-51
2022/01/11 06:30:45;;;;;;;0.20;0.10;;;;;;;0.16;100.00;101880.19;5051820;28;21065;-51
2022/01/11 06:33:12;;;;;;;0.20;0.10;;;;;;;-0.01;100.00;101873.38;5052202;28;20450;-51
2022/01/11 06:35:39;;;;;;;0.20;0.10;;;;;;;-0.03;100.00;101875.94;5052006;28;20458;-51
2022/01/11 06:38:06;;;;;;;0.20;0.10;;;;;;;0.09;100.00;101880.78;5051678;28;21109;-52
2022/01/11 06:40:32;;;;;;;0.20;0.10;;;;;;;0.30;100.00;101883.34;5051819;28;20450;-51
2022/01/11 06:42:59;;;;;;;0.20;0.10;;;;;;;-0.09;100.00;101882.66;5052036;28;20455;-51
2022/01/11 06:45:26;;;;;;;0.20;0.10;;;;;;;0.21;100.00;101883.88;5052067;28;20520;-51
2022/01/11 06:47:53;;;;;;;0.20;0.10;;;;;;;0.00;100.00;101885.66;5051899;28;20516;-51
2022/01/11 06:50:20;;;;;;;0.20;0.10;;;;;;;0.03;100.00;101884.88;5051502;28;20453;-52
2022/01/11 06:52:47;;;;;;;0.20;0.10;;;;;;;0.04;100.00;101891.88;5051859;28;20841;-51
2022/01/11 06:55:15;;;;;;;0.20;0.10;;;;;;;0.15;100.00;101887.97;5051659;28;20458;-51
2022/01/11 06:57:42;;;;;;;0.20;0.10;;;;;;;-0.11;100.00;101897.41;5051591;28;21018;-51
2022/01/11 07:00:09;;;;;;;0.20;0.10;;;;;;;-0.10;100.00;101892.22;5051960;28;20447;-51
2022/01/11 07:02:36;;;;;;;0.20;0.10;;;;;;;-0.43;100.00;101891.72;5038611;28;20504;-51
2022/01/11 07:05:03;;;;;;;0.20;0.10;;;;;;;-0.64;100.00;101896.06;5054461;28;20450;-51
2022/01/11 07:07:30;;;;;;;0.20;0.10;;;;;;;-0.54;100.00;101900.84;5055478;28;20467;-51
2022/01/11 07:09:57;;;;;;;0.20;0.10;;;;;;;-0.42;100.00;101892.59;5055139;28;20508;-52
2022/01/11 07:12:23;;;;;;;0.20;0.10;;;;;;;-0.38;100.00;101894.53;5055340;28;20860;-51
2022/01/11 07:14:50;;;;;;;0.20;0.10;;;;;;;-0.39;100.00;101900.59;5053268;28;20455;-52
2022/01/11 07:17:17;;;;;;;0.20;0.10;;;;;;;-0.42;100.00;101911.78;5050780;28;20473;-51
2022/01/11 07:19:44;;;;;;;1.57;1.53;;;;;;;-0.47;100.00;101910.72;5055249;28;20446;-51
2022/01/11 07:22:10;;;;;;;0.20;0.10;;;;;;;-0.48;100.00;101916.75;5055114;28;20496;-51
2022/01/11 07:24:37;;;;;;;0.20;0.10;;;;;;;-0.39;100.00;101924.09;5054954;28;20520;-51
2022/01/11 07:27:04;;;;;;;0.20;0.10;;;;;;;-0.38;100.00;101923.28;5052024;28;20475;-51
2022/01/11 07:29:30;;;;;;;0.20;0.10;;;;;;;-0.32;100.00;101921.78;5049706;28;20819;-51
2022/01/11 07:31:57;;;;;;;0.20;0.10;;;;;;;0.06;100.00;101926.81;5054784;28;20495;-52
2022/01/11 07:34:24;;;;;;;0.20;0.10;;;;;;;0.13;100.00;101926.22;5054879;28;20450;-52
2022/01/11 07:36:51;;;;;;;0.20;0.10;;;;;;;0.04;100.00;101936.31;5054709;28;20470;-53
2022/01/11 07:39:18;;;;;;;0.20;0.10;;;;;;;-0.04;100.00;101938.63;5054816;28;20446;-51
2022/01/11 07:41:45;;;;;;;0.20;0.10;;;;;;;-0.10;100.00;101941.88;5055040;28;20443;-51
2022/01/11 07:44:11;;;;;;;0.20;0.10;;;;;;;-0.39;100.00;101951.13;5054704;28;20451;-52
2022/01/11 07:46:39;;;;;;;0.20;0.10;;;;;;;-0.42;100.00;101942.22;5054558;28;20813;-53
2022/01/11 07:49:07;;;;;;;0.20;0.10;;;;;;;-0.52;100.00;101953.13;5054769;28;20450;-51
2022/01/11 07:51:34;;;;;;;0.20;0.10;;;;;;;-0.58;100.00;101953.75;5054552;28;20544;-51
2022/01/11 07:54:00;;;;;;;0.20;0.10;;;;;;;-0.49;100.00;101963.72;5054792;28;20508;-51
2022/01/11 07:56:27;;;;;;;0.20;0.10;;;;;;;-0.72;100.00;101957.47;5054445;28;20446;-53
2022/01/11 07:58:54;;;;;;;0.20;0.10;;;;;;;-0.61;100.00;101964.06;5054445;28;20542;-51
2022/01/11 08:01:20;;;;;;;0.20;0.10;;;;;;;-0.68;100.00;101969.88;5054500;28;20465;-51
2022/01/11 08:03:47;;;;;;;0.20;0.10;;;;;;;-0.74;100.00;101974.78;5054381;28;20499;-51
2022/01/11 08:06:14;;;;;;;0.20;0.10;;;;;;;-0.85;100.00;101976.91;5054326;28;20455;-51
2022/01/11 08:08:42;;;;;;;0.20;0.10;;;;;;;-0.74;100.00;101974.78;5054304;28;21009;-51
2022/01/11 08:11:10;;;;;;;0.20;0.10;;;;;;;-0.64;100.00;101983.09;5054267;28;20486;-51
2022/01/11 08:13:38;;;;;;;0.20;0.10;;;;;;;-0.63;100.00;101987.50;5054173;28;20450;-51
2022/01/11 08:16:05;;;;;;;0.20;0.10;;;;;;;-0.55;100.00;101986.94;5053785;28;20477;-51
2022/01/11 08:18:32;;;;;;;0.20;0.10;;;;;;;-0.54;100.00;101987.03;5054391;28;20585;-52
2022/01/11 08:20:59;;;;;;;0.20;0.10;;;;;;;-0.08;100.00;101986.38;5054662;28;20454;-51
2022/01/11 08:23:25;;;;;;;0.20;0.10;;;;;;;0.04;100.00;101983.38;5054535;28;20447;-51
2022/01/11 08:25:52;;;;;;;0.30;0.20;;;;;;;0.25;100.00;101982.50;5054517;28;20562;-51
2022/01/11 08:28:19;;;;;;;0.20;0.10;;;;;;;-0.02;100.00;101986.59;5054347;28;20526;-51
2022/01/11 08:30:45;;;;;;;0.20;0.10;;;;;;;-0.37;100.00;101983.41;5054373;28;20458;-51
2022/01/11 08:33:12;;;;;;;0.20;0.10;;;;;;;-0.38;100.00;101989.47;5053687;28;21068;-51
2022/01/11 08:35:39;;;;;;;0.20;0.10;;;;;;;-0.11;100.00;101991.47;5054068;28;20451;-51
2022/01/11 08:38:07;;;;;;;0.20;0.10;;;;;;;-0.41;100.00;101993.66;5053915;28;20470;-51
2022/01/11 08:40:33;;;;;;;0.20;0.10;;;;;;;-0.45;100.00;101997.84;5053849;28;20818;-51
2022/01/11 08:43:03;;;;;;;5.50;2.53;;;;;;;-0.42;100.00;101999.69;5053571;28;20820;-51
2022/01/11 08:45:30;;;;;;;0.20;0.10;;;;;;;-0.39;100.00;102002.47;5053649;28;20455;-52
2022/01/11 08:47:59;;;;;;;0.20;0.10;;;;;;;-0.56;100.00;102004.31;5053698;28;20471;-51
2022/01/11 08:50:25;;;;;;;5.60;4.67;;;;;;;-0.40;100.00;102011.13;5053753;28;20446;-52
2022/01/11 08:52:52;;;;;;;0.20;0.10;;;;;;;-0.54;100.00;102004.41;5053693;28;20491;-51
2022/01/11 08:55:19;;;;;;;0.20;0.10;;;;;;;-0.45;100.00;102008.28;5053630;28;20450;-51
2022/01/11 08:57:46;;;;;;;0.20;0.10;;;;;;;-0.38;100.00;102018.19;5039869;28;20482;-51
2022/01/11 09:00:17;;;;;;;0.20;0.10;;;;;;;-0.08;100.00;102012.50;5053321;28;20455;-54
2022/01/11 09:02:51;;;;;;;0.20;0.10;;;;;;;0.21;100.00;102013.72;5040904;28;20516;-51
2022/01/11 09:05:19;;;;;;;0.20;0.10;;;;;;;0.13;100.00;102016.00;5053303;28;20446;-52
2022/01/11 09:07:46;;;;;;;0.30;0.20;;;;;;;-0.25;100.00;102016.13;5053376;28;20471;-52
2022/01/11 09:10:14;;;;;;;0.20;0.10;;;;;;;-0.17;100.00;102012.09;5053103;28;20438;-51
2022/01/11 09:12:41;;;;;;;0.20;0.10;;;;;;;0.10;100.00;102018.50;5053093;28;20487;-54
2022/01/11 09:15:09;;;;;;;0.20;0.10;;;;;;;0.22;100.00;102023.34;5053403;28;20947;-51
2022/01/11 09:17:36;;;;;;;0.20;0.10;;;;;;;0.03;100.00;102018.19;5052992;28;20973;-52
2022/01/11 09:20:06;;;;;;;0.20;0.10;;;;;;;0.26;100.00;102017.41;5053170;28;20451;-51
2022/01/11 09:22:33;;;;;;;0.20;0.10;;;;;;;0.13;100.00;102015.09;5053295;28;20446;-52
2022/01/11 09:24:59;;;;;;;0.20;0.10;;;;;;;0.26;100.00;102018.28;5053030;28;20982;-51
2022/01/11 09:27:26;;;;;;;0.20;0.10;;;;;;;0.09;100.00;102026.28;5052154;28;20474;-51
2022/01/11 09:29:59;;;;;;;0.20;0.10;;;;;;;0.02;100.00;102025.13;5053269;28;20447;-51
2022/01/11 09:32:26;;;;;;;0.20;0.10;;;;;;;0.27;100.00;102022.72;5052775;28;20527;-51
2022/01/11 09:34:53;;;;;;;0.20;0.10;;;;;;;0.43;100.00;102021.63;5039742;28;20454;-52
2022/01/11 09:37:20;;;;;;;0.30;0.20;;;;;;;0.45;100.00;102024.28;5052626;28;20540;-53
2022/01/11 09:39:48;;;;;;;0.20;0.10;;;;;;;0.16;100.00;102026.59;5052702;28;20447;-51
2022/01/11 09:42:15;;;;;;;0.20;0.20;;;;;;;0.46;100.00;102020.84;5052769;28;20500;-52
2022/01/11 09:44:42;;;;;;;0.20;0.10;;;;;;;0.22;100.00;102032.06;5052849;28;20531;-51
2022/01/11 09:47:11;;;;;;;0.20;0.10;;;;;;;0.39;100.00;102024.03;5052641;28;20463;-51
2022/01/11 09:49:39;;;;;;;0.20;0.10;;;;;;;0.56;100.00;102023.00;5052708;28;20454;-52
2022/01/11 09:52:08;;;;;;;0.20;0.10;;;;;;;0.78;100.00;102032.56;5052479;28;20489;-51
2022/01/11 09:54:40;;;;;;;0.60;0.60;;;;;;;1.02;100.00;102030.00;5052411;28;20508;-51
2022/01/11 09:57:09;;;;;;;0.20;0.10;;;;;;;0.97;100.00;102024.63;5052514;28;20478;-52
2022/01/11 09:59:37;;;;;;;0.20;0.20;;;;;;;1.30;100.00;102024.97;5052880;28;20481;-51
2022/01/11 10:02:04;;;;;;;0.20;0.10;;;;;;;0.96;100.00;102032.38;5052379;28;20492;-52
2022/01/11 10:04:34;;;;;;;0.20;0.10;;;;;;;1.13;100.00;102023.47;5052568;28;20562;-51
2022/01/11 10:07:07;;;;;;;0.20;0.10;;;;;;;1.02;100.00;102022.16;5052193;28;20471;-52
2022/01/11 10:09:47;;;;;;;0.20;0.20;;;;;;;0.80;100.00;102025.66;5052400;28;20923;-51
2022/01/11 10:12:16;;;;;;;0.20;0.10;;;;;;;1.13;100.00;102024.34;5052163;28;20490;-51
2022/01/11 10:14:51;;;;;;;0.20;0.10;;;;;;;1.27;100.00;102026.59;5051088;28;20455;-52
2022/01/11 10:17:27;;;;;;;0.20;0.10;;;;;;;0.90;100.00;102033.06;5052244;28;20524;-52
2022/01/11 10:20:11;;;;;;;0.20;0.10;;;;;;;0.94;100.00;102034.06;5052420;28;20453;-52
2022/01/11 10:23:07;;;;;;;0.20;0.10;;;;;;;1.16;100.00;102013.09;5052303;28;20859;-51
2022/01/11 10:25:47;;;;;;;0.20;0.10;;;;;;;0.97;100.00;102024.63;5039734;28;20458;-51
2022/01/11 10:28:33;;;;;;;0.20;0.10;;;;;;;0.97;100.00;102019.38;5052239;28;20474;-51
2022/01/11 10:30:59;;;;;;;0.20;0.10;;;;;;;1.28;100.00;102025.75;5052205;28;20457;-52
2022/01/11 10:33:26;;;;;;;0.20;0.10;;;;;;;1.08;100.00;102019.75;5051913;28;20526;-51
2022/01/11 10:35:53;;;;;;;0.20;0.10;;;;;;;1.17;100.00;102017.50;5052055;28;20443;-53
2022/01/11 10:38:29;;;;;;;0.20;0.10;;;;;;;1.24;100.00;102022.16;5053624;28;20904;-53
2022/01/11 10:40:56;;;;;;;0.20;0.10;;;;;;;1.37;100.00;102018.22;5056348;28;20793;-51
2022/01/11 10:43:23;;;;;;;0.20;0.10;;;;;;;1.46;100.00;102024.69;5056530;28;20501;-51
2022/01/11 10:45:58;;;;;;;0.20;0.10;;;;;;;1.25;100.00;102030.91;5055985;28;20443;-52
2022/01/11 10:48:27;;;;;;;0.20;0.10;;;;;;;1.26;100.00;102025.72;5055986;28;20470;-52
2022/01/11 10:51:02;;;;;;;0.67;0.67;;;;;;;1.21;100.00;102023.72;5055836;28;20455;-51
2022/01/11 10:53:38;;;;;;;0.20;0.10;;;;;;;1.44;100.00;102022.88;5056253;28;20544;-50
2022/01/11 10:56:06;;;;;;;0.20;0.10;;;;;;;1.37;100.00;102023.47;5056359;28;20446;-53
2022/01/11 10:59:02;;;;;;;0.20;0.10;;;;;;;1.44;100.00;102018.50;5054031;23;20506;-51
2022/01/11 11:01:31;;;;;;;0.20;0.20;;;;;;;1.60;100.00;102019.94;5028069;28;20447;-51
2022/01/11 11:04:00;;;;;;;0.20;0.20;;;;;;;1.78;100.00;102022.31;5036950;28;20543;-50
2022/01/11 11:06:26;;;;;;;0.20;0.10;;;;;;;1.71;100.00;102022.97;5039653;28;20452;-50
2022/01/11 11:08:53;;;;;;;0.20;0.10;;;;;;;1.66;100.00;102014.94;5039397;28;20472;-50
2022/01/11 11:11:23;;;;;;;0.20;0.10;;;;;;;1.95;100.00;102015.06;5036805;28;20475;-50
2022/01/11 11:13:51;;;;;;;0.87;0.80;;;;;;;1.83;100.00;102012.03;5035909;28;20491;-50
2022/01/11 11:16:21;;;;;;;0.20;0.10;;;;;;;1.82;100.00;102013.75;5035939;28;20975;-50
2022/01/11 11:18:52;;;;;;;0.20;0.10;;;;;;;1.89;100.00;102005.25;5024696;28;20475;-50
2022/01/11 11:21:21;;;;;;;0.20;0.10;;;;;;;2.09;100.00;102003.31;5035988;28;20455;-51
2022/01/11 11:24:17;;;;;;;2.10;2.10;;;;;;;2.13;100.00;102009.53;5035962;28;20855;-56
2022/01/11 11:26:49;;;;;;;0.20;0.10;;;;;;;2.02;100.00;102007.44;5008682;28;20468;-51